Time;durP1;ratioP1;P1;durP2;ratioP2;P2;SDS_P1;SDS_P2;PMS_P1;PMS_P2;Temp;Humidity;BMP_temperature;BMP_pressure;BME280_temperature;BME280_humidity;BME280_pressure;Samples;Min_cycle;Max_cycle;Signal;HPM_P1;HPM_P2
2022/06/02 00:00:07;;;;;;;4.10;2.17;;;9.10;99.90;;;;;;5055560;28;20600;-73
2022/06/02 00:02:51;;;;;;;;;;;8.90;99.90;;;;;;5072695;28;20039;-73
2022/06/02 00:05:29;;;;;;;3.35;2.00;;;9.10;99.90;;;;;;5055720;28;20493;-73
2022/06/02 00:08:22;;;;;;;4.15;2.40;;;9.00;99.90;;;;;;5072096;28;20052;-73
2022/06/02 00:11:00;;;;;;;6.25;2.30;;;9.30;99.90;;;;;;5072050;28;20167;-73
2022/06/02 00:13:28;;;;;;;4.10;2.25;;;9.00;99.90;;;;;;5071490;28;20507;-73
2022/06/02 00:16:00;;;;;;;4.35;2.58;;;9.30;99.90;;;;;;5072270;28;20040;-73
2022/06/02 00:18:40;;;;;;;4.30;2.22;;;8.90;99.90;;;;;;5072132;28;20174;-73
2022/06/02 00:21:18;;;;;;;3.35;2.25;;;8.90;99.90;;;;;;5054993;28;20064;-73
2022/06/02 00:23:55;;;;;;;5.93;2.63;;;8.90;99.90;;;;;;5071837;28;20041;-73
2022/06/02 00:26:24;;;;;;;4.38;2.67;;;9.20;99.90;;;;;;5071928;28;20032;-73
2022/06/02 00:28:52;;;;;;;3.58;2.40;;;8.80;99.90;;;;;;5071860;28;20076;-73
2022/06/02 00:31:44;;;;;;;4.20;2.17;;;8.80;99.90;;;;;;5072045;28;20045;-73
2022/06/02 00:34:29;;;;;;;5.20;2.67;;;8.80;99.90;;;;;;5071740;28;20052;-74
2022/06/02 00:37:20;;;;;;;5.82;2.95;;;8.80;99.90;;;;;;5071650;28;20072;-73
2022/06/02 00:39:47;;;;;;;6.50;2.97;;;8.70;99.90;;;;;;5071823;28;20407;-73
2022/06/02 00:42:51;;;;;;;5.93;2.58;;;9.10;99.90;;;;;;5071753;28;20418;-73
2022/06/02 00:45:18;;;;;;;3.83;2.40;;;8.70;99.90;;;;;;5055146;28;20131;-73
2022/06/02 00:47:43;;;;;;;3.72;2.83;;;8.80;99.90;;;;;;5071588;28;20072;-73
2022/06/02 00:50:25;;;;;;;6.70;3.42;;;9.00;99.90;;;;;;5054929;28;20517;-73
2022/06/02 00:53:05;;;;;;;5.03;2.92;;;8.90;99.90;;;;;;5105322;28;20066;-73
2022/06/02 00:58:39;;;;;;;5.43;3.53;;;8.70;99.90;;;;;;5071511;28;20519;-73
2022/06/02 01:01:13;;;;;;;8.00;2.78;;;8.60;99.90;;;;;;5071529;28;20039;-73
2022/06/02 01:03:48;;;;;;;4.90;2.45;;;8.70;99.90;;;;;;5071347;28;20060;-73
2022/06/02 01:06:26;;;;;;;5.30;2.97;;;8.50;99.90;;;;;;5071797;28;20032;-73
2022/06/02 01:09:12;;;;;;;3.53;2.60;;;8.80;99.90;;;;;;5071432;28;20051;-73
2022/06/02 01:12:04;;;;;;;4.00;2.50;;;8.60;99.90;;;;;;5071406;28;20132;-73
2022/06/02 01:14:58;;;;;;;5.80;2.75;;;8.60;99.90;;;;;;5071661;28;20105;-73
2022/06/02 01:17:35;;;;;;;5.55;2.63;;;8.60;99.90;;;;;;5071289;28;20045;-73
2022/06/02 01:20:19;;;;;;;3.70;2.60;;;8.60;99.90;;;;;;5054372;28;20060;-73
2022/06/02 01:23:19;;;;;;;5.82;3.35;;;8.80;99.90;;;;;;5071656;28;20080;-73
2022/06/02 01:26:03;;;;;;;4.68;3.00;;;8.50;99.90;;;;;;5075303;28;20043;-73
2022/06/02 01:28:44;;;;;;;4.13;2.92;;;8.60;99.90;;;;;;5075109;28;20045;-73
2022/06/02 01:31:43;;;;;;;6.57;2.80;;;8.40;99.90;;;;;;5075074;28;20043;-73
2022/06/02 01:34:24;;;;;;;4.18;2.80;;;8.80;99.90;;;;;;5036645;28;20127;-73
2022/06/02 01:37:07;;;;;;;5.20;2.75;;;8.40;99.90;;;;;;5074919;28;20117;-73
2022/06/02 01:39:39;;;;;;;7.10;3.78;;;8.40;99.90;;;;;;5074925;28;20454;-73
2022/06/02 01:42:13;;;;;;;3.72;2.75;;;8.60;99.90;;;;;;5074927;28;20470;-73
2022/06/02 01:45:04;;;;;;;4.70;3.15;;;8.40;99.90;;;;;;5074965;28;20461;-73
2022/06/02 01:47:32;;;;;;;;;;;8.40;99.90;;;;;;5058720;28;20526;-73
2022/06/02 01:50:19;;;;;;;4.13;2.95;;;8.40;99.90;;;;;;5074731;28;19916;-73
2022/06/02 01:52:57;;;;;;;6.18;3.00;;;8.30;99.90;;;;;;5058289;28;20051;-73
2022/06/02 01:56:00;;;;;;;5.30;3.40;;;8.30;99.90;;;;;;5074998;28;20059;-73
2022/06/02 01:58:32;;;;;;;4.82;2.90;;;8.10;99.90;;;;;;5074583;28;20051;-73
2022/06/02 02:01:24;;;;;;;6.20;3.78;;;8.30;99.90;;;;;;5074572;28;20373;-73
2022/06/02 02:04:17;;;;;;;5.43;3.45;;;8.20;99.90;;;;;;5074595;28;20461;-73
2022/06/02 02:07:02;;;;;;;5.32;3.45;;;8.60;99.90;;;;;;5074364;28;20090;-73
2022/06/02 02:10:18;;;;;;;5.95;3.92;;;8.10;99.90;;;;;;5074717;28;20052;-73
2022/06/02 02:12:50;;;;;;;5.43;3.55;;;8.10;99.90;;;;;;5053522;28;20131;-73
2022/06/02 02:15:41;;;;;;;3.85;3.20;;;8.00;99.90;;;;;;5074598;28;20165;-73
2022/06/02 02:18:31;;;;;;;5.93;3.42;;;8.70;99.90;;;;;;5074506;28;20040;-73
2022/06/02 02:21:03;;;;;;;4.28;2.83;;;;;;;;;;5074173;28;20053;-73
2022/06/02 02:23:32;;;;;;;5.28;3.33;;;;;;;;;;5074468;28;20056;-73
2022/06/02 02:26:05;;;;;;;6.93;3.25;;;;;;;;;;5074165;28;20090;-73
2022/06/02 02:28:46;;;;;;;9.73;3.90;;;;;;;;;;5057309;28;20041;-73
2022/06/02 02:31:12;;;;;;;;;;;;;;;;;;5074332;28;20044;-73
2022/06/02 02:33:57;;;;;;;7.85;3.13;;;;;;;;;;5074015;28;20268;-74
2022/06/02 02:36:23;;;;;;;6.15;3.78;;;;;;;;;;5073110;28;20041;-73
2022/06/02 02:38:59;;;;;;;11.00;4.13;;;;;;;;;;5073786;28;20040;-73
2022/06/02 02:41:29;;;;;;;8.25;3.92;;;;;;;;;;5057181;28;20500;-73
2022/06/02 02:43:55;;;;;;;5.63;4.28;;;;;;;;;;5057056;28;20131;-74
2022/06/02 02:46:42;;;;;;;5.03;3.47;;;;;;;;;;5057379;28;20392;-74
2022/06/02 02:49:37;;;;;;;6.80;3.58;;;;;;;;;;5066816;28;20064;-74
2022/06/02 02:52:22;;;;;;;5.00;3.20;;;;;;;;;;5038730;28;20130;-73
2022/06/02 02:55:08;;;;;;;7.00;3.60;;;;;;;;;;5073801;28;20480;-74
2022/06/02 02:57:49;;;;;;;6.10;3.88;;;;;;;;;;5056553;28;20185;-74
2022/06/02 03:00:15;;;;;;;6.10;3.70;;;;;;;;;;5056566;28;20040;-74
2022/06/02 03:02:41;;;;;;;5.53;3.63;;;;;;;;;;5073339;28;20044;-73
2022/06/02 03:05:22;;;;;;;5.38;3.92;;;;;;;;;;5073367;28;20040;-73
2022/06/02 03:07:48;;;;;;;9.40;3.53;;;;;;;;;;5073344;28;20049;-74
2022/06/02 03:10:19;;;;;;;8.15;4.60;;;;;;;;;;5056711;28;20388;-73
2022/06/02 03:12:54;;;;;;;7.05;3.88;;;;;;;;;;5056410;28;20470;-74
2022/06/02 03:15:39;;;;;;;6.22;3.58;;;;;;;;;;5073010;28;20040;-74
2022/06/02 03:18:05;;;;;;;8.65;4.88;;;;;;;;;;5073149;28;20078;-73
2022/06/02 03:20:32;;;;;;;4.88;3.65;;;;;;;;;;5072886;28;20056;-74
2022/06/02 03:23:06;;;;;;;6.47;3.53;;;;;;;;;;5073163;28;20044;-74
2022/06/02 03:25:36;;;;;;;4.88;3.47;;;;;;;;;;5072929;28;20055;-73
2022/06/02 03:28:14;;;;;;;6.93;4.03;;;;;;;;;;5073417;28;20086;-73
2022/06/02 03:30:48;;;;;;;7.07;3.95;;;;;;;;;;5072728;28;20098;-73
2022/06/02 03:33:14;;;;;;;5.10;3.03;;;;;;;;;;5072635;28;20396;-73
2022/06/02 03:35:43;;;;;;;7.30;3.88;;;;;;;;;;5056034;28;20051;-74
2022/06/02 03:38:25;;;;;;;5.22;3.92;;;;;;;;;;5055807;28;20076;-73
2022/06/02 03:41:08;;;;;;;5.18;3.50;;;;;;;;;;5055914;28;20384;-74
2022/06/02 03:43:34;;;;;;;7.85;4.35;;;;;;;;;;5056082;28;20086;-73
2022/06/02 03:46:16;;;;;;;7.85;4.13;;;;;;;;;;5072270;28;20048;-73
2022/06/02 03:48:53;;;;;;;6.18;3.85;;;;;;;;;;5072769;28;20055;-73
2022/06/02 03:51:35;;;;;;;6.80;3.95;;;;;;;;;;5072565;28;20488;-73
2022/06/02 03:54:19;;;;;;;5.95;3.65;;;;;;;;;;5072311;28;20040;-74
2022/06/02 03:57:04;;;;;;;5.43;3.38;;;;;;;;;;5072590;28;20080;-73
2022/06/02 03:59:36;;;;;;;9.77;4.50;;;;;;;;;;5055497;28;20411;-73
2022/06/02 04:02:06;;;;;;;5.57;3.70;;;;;;;;;;5072178;28;20040;-73
2022/06/02 04:04:49;;;;;;;5.72;2.95;;;;;;;;;;5072061;28;20072;-74
2022/06/02 04:07:27;;;;;;;5.68;3.38;;;;;;;;;;5055728;28;20047;-73
2022/06/02 04:10:03;;;;;;;6.55;4.38;;;;;;;;;;5072106;28;20040;-73
2022/06/02 04:15:16;;;;;;;5.43;3.65;;;;;;;;;;5071909;28;20050;-73
2022/06/02 04:17:42;;;;;;;6.70;3.70;;;;;;;;;;5072177;28;20087;-73
2022/06/02 04:22:59;;;;;;;6.47;3.65;;;;;;;;;;5072150;28;20488;-74
2022/06/02 04:25:36;;;;;;;5.53;3.60;;;;;;;;;;5071879;28;20063;-71
2022/06/02 04:28:08;;;;;;;8.18;4.15;;;;;;;;;;5055379;28;20063;-70
2022/06/02 04:30:43;;;;;;;6.82;3.28;;;;;;;;;;5071751;28;20032;-70
2022/06/02 04:33:15;;;;;;;6.10;3.55;;;;;;;;;;5071608;28;20037;-71
2022/06/02 04:35:49;;;;;;;6.18;3.63;;;;;;;;;;5055324;28;20041;-70
2022/06/02 04:38:38;;;;;;;6.28;4.00;;;;;;;;;;5071670;28;20044;-70
2022/06/02 04:41:04;;;;;;;7.55;4.43;;;;;;;;;;5071584;28;20078;-70
2022/06/02 04:43:48;;;;;;;6.78;3.80;;;;;;;;;;5071711;28;20074;-70
2022/06/02 04:46:22;;;;;;;6.53;3.20;;;;;;;;;;5071715;28;20049;-71
2022/06/02 04:48:56;;;;;;;5.13;3.38;;;;;;;;;;5071617;28;20044;-70
2022/06/02 04:51:27;;;;;;;6.35;4.20;;;;;;;;;;5071516;28;20411;-70
2022/06/02 04:54:12;;;;;;;6.40;3.50;;;;;;;;;;5071547;28;20508;-70
2022/06/02 04:56:44;;;;;;;7.35;4.43;;;;;;;;;;5054713;28;20105;-71
2022/06/02 04:59:26;;;;;;;7.43;3.42;;;;;;;;;;5074178;28;20044;-71
2022/06/02 05:02:10;;;;;;;6.00;3.22;;;;;;;;;;5075938;28;20071;-71
2022/06/02 05:04:44;;;;;;;5.95;4.05;;;;;;;;;;5075555;28;20044;-70
2022/06/02 05:07:18;;;;;;;7.50;4.43;;;;;;;;;;5075740;28;20036;-71
2022/06/02 05:10:14;;;;;;;6.25;3.58;;;;;;;;;;5075756;28;20094;-70
2022/06/02 05:13:00;;;;;;;5.68;3.25;;;;;;;;;;5075708;28;20044;-71
2022/06/02 05:15:32;;;;;;;6.22;3.45;;;;;;;;;;5075387;28;20378;-70
2022/06/02 05:17:58;;;;;;;4.50;3.65;;;;;;;;;;5075228;28;20040;-70
2022/06/02 05:20:39;;;;;;;4.78;3.10;;;;;;;;;;5075139;28;20079;-70
2022/06/02 05:23:25;;;;;;;6.20;3.97;;;;;;;;;;5075155;28;20450;-70
2022/06/02 05:25:54;;;;;;;6.05;3.80;;;;;;;;;;5075354;28;20559;-70
2022/06/02 05:28:53;;;;;;;8.57;3.97;;;10.20;99.90;;;;;;5058714;28;20127;-70
2022/06/02 05:31:51;;;;;;;5.53;3.33;;;10.30;99.90;;;;;;5075013;28;20072;-70
2022/06/02 05:34:38;;;;;;;5.00;3.25;;;10.30;99.90;;;;;;5058598;28;20137;-70
2022/06/02 05:37:23;;;;;;;6.90;3.05;;;10.40;99.90;;;;;;5074904;28;20048;-71
2022/06/02 05:40:15;;;;;;;6.20;3.22;;;10.60;99.90;;;;;;5074811;28;20489;-70
2022/06/02 05:42:56;;;;;;;9.43;3.40;;;10.70;99.90;;;;;;5074814;28;20091;-69
2022/06/02 05:45:45;;;;;;;5.90;3.47;;;10.80;99.90;;;;;;5075059;28;20055;-70
2022/06/02 05:48:42;;;;;;;5.97;2.97;;;10.90;99.90;;;;;;5051680;28;20048;-71
2022/06/02 05:51:32;;;;;;;4.82;2.78;;;11.10;99.90;;;;;;5074664;28;20040;-70
2022/06/02 05:54:10;;;;;;;6.15;2.58;;;11.20;99.90;;;;;;5074920;28;20412;-69
2022/06/02 05:56:51;;;;;;;4.50;3.05;;;11.30;99.90;;;;;;5074896;28;20481;-69
2022/06/02 05:59:29;;;;;;;4.10;2.28;;;11.30;99.90;;;;;;5057923;28;20525;-68
2022/06/02 06:02:09;;;;;;;3.85;2.47;;;11.40;99.90;;;;;;5057764;28;20078;-70
2022/06/02 06:04:46;;;;;;;5.03;2.30;;;11.60;99.90;;;;;;5074494;28;20064;-70
2022/06/02 06:07:18;;;;;;;4.25;2.75;;;11.70;99.90;;;;;;5074340;28;20044;-70
2022/06/02 06:10:07;;;;;;;5.47;3.03;;;11.80;99.90;;;;;;5074532;28;20369;-71
2022/06/02 06:13:00;;;;;;;4.70;2.50;;;11.90;99.90;;;;;;5074559;28;20508;-69
2022/06/02 06:15:29;;;;;;;3.03;2.38;;;12.00;99.90;;;;;;5053777;28;20403;-72
2022/06/02 06:18:13;;;;;;;4.43;2.53;;;12.10;99.90;;;;;;5074061;28;20502;-72
2022/06/02 06:21:06;;;;;;;4.85;1.60;;;12.20;99.90;;;;;;5073999;28;20070;-72
2022/06/02 06:23:47;;;;;;;4.88;2.42;;;12.30;99.90;;;;;;5057275;28;20044;-72
2022/06/02 06:26:52;;;;;;;4.20;2.40;;;12.50;99.90;;;;;;5057611;28;20048;-71
2022/06/02 06:29:52;;;;;;;5.00;2.28;;;12.50;99.90;;;;;;5073926;28;20090;-72
2022/06/02 06:32:39;;;;;;;3.15;2.08;;;12.60;99.90;;;;;;5073808;28;20040;-70
2022/06/02 06:35:24;;;;;;;3.55;2.30;;;12.70;99.90;;;;;;5074079;28;20107;-71
2022/06/02 06:38:18;;;;;;;3.67;1.88;;;12.80;99.90;;;;;;5057280;28;20511;-72
2022/06/02 06:40:49;;;;;;;3.22;1.73;;;13.00;99.90;;;;;;5073791;28;20044;-71
2022/06/02 06:43:36;;;;;;;2.92;1.90;;;13.00;99.90;;;;;;5056870;28;20119;-71
2022/06/02 06:46:23;;;;;;;2.10;1.48;;;13.20;99.90;;;;;;5057036;28;20040;-70
2022/06/02 06:48:59;;;;;;;2.45;1.48;;;13.20;99.90;;;;;;5073736;28;20076;-70
2022/06/02 06:51:49;;;;;;;1.80;1.20;;;13.40;99.90;;;;;;5073389;28;20127;-70
2022/06/02 06:54:40;;;;;;;1.52;1.20;;;13.40;99.90;;;;;;5073391;28;20040;-71
2022/06/02 06:57:31;;;;;;;3.03;1.40;;;13.40;99.90;;;;;;5073489;28;20411;-70
2022/06/02 07:00:07;;;;;;;1.80;1.38;;;13.50;99.90;;;;;;5068028;28;20052;-70
2022/06/02 07:02:36;;;;;;;2.03;1.30;;;13.50;99.90;;;;;;5056986;28;20036;-71
2022/06/02 07:05:06;;;;;;;1.77;1.13;;;13.50;99.90;;;;;;5073188;28;20114;-70
2022/06/02 07:08:14;;;;;;;2.00;1.25;;;13.60;99.90;;;;;;5056516;28;20041;-71
2022/06/02 07:12:50;;;;;;;2.10;1.45;;;13.60;99.90;;;;;;5073816;28;20037;-70
2022/06/02 07:14:06;;;;;;;1.40;0.90;;;13.80;99.90;;;;;;5073240;28;20392;-70
2022/06/02 07:16:39;;;;;;;1.63;0.93;;;13.90;99.90;;;;;;5107150;28;20048;-70
2022/06/02 07:19:05;;;;;;;1.25;1.15;;;;;;;;;;5072856;28;20044;-70
2022/06/02 07:21:51;;;;;;;1.67;1.15;;;;;;;;;;5072148;28;20114;-70
2022/06/02 07:24:23;;;;;;;2.20;1.10;;;;;;;;;;5072544;28;20041;-71
2022/06/02 07:26:58;;;;;;;1.90;0.98;;;;;;;;;;5073064;28;20048;-70
2022/06/02 07:29:30;;;;;;;0.80;0.80;;;;;;;;;;5072857;28;20040;-71
2022/06/02 07:32:22;;;;;;;1.58;0.93;;;14.40;99.90;;;;;;5072629;28;20040;-70
2022/06/02 07:34:53;;;;;;;;;;;14.50;99.90;;;;;;5056422;28;20075;-71
2022/06/02 07:37:34;;;;;;;1.73;1.10;;;14.50;99.90;;;;;;5072897;28;19955;-71
2022/06/02 07:40:44;;;;;;;1.92;1.00;;;14.50;99.90;;;;;;5055855;28;20082;-72
2022/06/02 07:43:35;;;;;;;1.42;1.02;;;14.40;99.90;;;;;;5064203;28;20043;-71
2022/06/02 07:46:29;;;;;;;5.07;1.05;;;14.50;99.90;;;;;;5072453;28;20119;-71
2022/06/02 07:49:25;;;;;;;0.77;0.75;;;14.50;99.90;;;;;;5072415;28;20088;-71
2022/06/02 07:51:58;;;;;;;1.00;0.75;;;14.40;99.90;;;;;;5072356;28;20190;-71
2022/06/02 07:54:54;;;;;;;1.35;0.88;;;14.50;99.90;;;;;;5072093;28;20045;-71
2022/06/02 07:57:32;;;;;;;1.73;0.73;;;14.70;99.90;;;;;;5055558;28;20045;-72
2022/06/02 08:00:09;;;;;;;1.08;0.88;;;15.00;99.90;;;;;;5072202;28;20045;-71
2022/06/02 08:02:38;;;;;;;1.35;0.88;;;15.00;99.90;;;;;;5072129;28;20041;-71
2022/06/02 08:05:22;;;;;;;1.33;0.88;;;15.00;99.90;;;;;;5072102;28;20113;-71
2022/06/02 08:08:00;;;;;;;1.50;0.88;;;15.00;99.90;;;;;;5072362;28;20230;-71
2022/06/02 08:10:44;;;;;;;1.42;0.90;;;15.00;99.90;;;;;;5105977;28;20048;-71
2022/06/02 08:13:27;;;;;;;1.38;0.85;;;15.00;99.90;;;;;;5072292;28;20484;-71
2022/06/02 08:16:19;;;;;;;0.98;0.63;;;15.00;99.90;;;;;;5072204;28;20127;-71
2022/06/02 08:19:04;;;;;;;3.45;1.08;;;;;;;;;;5071993;28;20402;-71
2022/06/02 08:21:45;;;;;;;1.55;0.80;;;;;;;;;;5071754;28;20132;-70
2022/06/02 08:24:34;;;;;;;1.10;0.80;;;;;;;;;;5071774;28;20044;-70
2022/06/02 08:27:18;;;;;;;1.95;1.13;;;;;;;;;;5071780;28;20043;-71
2022/06/02 08:29:47;;;;;;;1.48;1.00;;;;;;;;;;5071832;28;20036;-70
2022/06/02 08:32:13;;;;;;;2.05;1.38;;;;;;;;;;5071191;28;20036;-70
2022/06/02 08:34:49;;;;;;;1.90;0.75;;;;;;;;;;5071447;28;20051;-70
2022/06/02 08:37:15;;;;;;;1.60;0.90;;;;;;;;;;5054972;28;20063;-70
2022/06/02 08:40:05;;;;;;;2.25;0.90;;;;;;;;;;5071674;28;20045;-70
2022/06/02 08:42:34;;;;;;;1.58;0.88;;;;;;;;;;5066267;28;20048;-70
2022/06/02 08:45:03;;;;;;;1.58;1.17;;;;;;;;;;5071902;28;20047;-69
2022/06/02 08:47:29;;;;;;;1.00;0.88;;;;;;;;;;5055206;28;20332;-69
2022/06/02 08:50:10;;;;;;;1.25;0.82;;;;;;;;;;5055127;28;20488;-70
2022/06/02 08:52:43;;;;;;;1.55;0.93;;;;;;;;;;5071540;28;20048;-70
2022/06/02 08:55:27;;;;;;;2.33;1.15;;;;;;;;;;5054778;28;20074;-70
2022/06/02 08:58:11;;;;;;;1.70;1.10;;;;;;;;;;5071427;28;20041;-71
2022/06/02 09:01:05;;;;;;;3.05;0.88;;;;;;;;;;5071825;28;20036;-75
2022/06/02 09:03:43;;;;;;;2.10;1.17;;;;;;;;;;5071695;28;20476;-76
2022/06/02 09:06:17;;;;;;;1.17;0.85;;;;;;;;;;5071843;28;20041;-75
2022/06/02 09:08:49;;;;;;;1.65;0.98;;;;;;;;;;5071714;28;20132;-76
2022/06/02 09:11:18;;;;;;;1.58;0.80;;;;;;;;;;5071333;28;20107;-75
2022/06/02 09:14:03;;;;;;;0.65;0.60;;;;;;;;;;5071590;28;20045;-75
2022/06/02 09:16:53;;;;;;;1.25;0.80;;;;;;;;;;5071340;28;20040;-75
2022/06/02 09:19:49;;;;;;;0.93;0.82;;;;;;;;;;5071464;28;20127;-74
2022/06/02 09:22:29;;;;;;;3.15;0.77;;;;;;;;;;5062679;28;20106;-75
2022/06/02 09:25:06;;;;;;;1.00;0.77;;;;;;;;;;5071273;28;20106;-76
2022/06/02 09:27:35;;;;;;;1.30;0.90;;;;;;;;;;5054504;28;20040;-75
2022/06/02 09:30:12;;;;;;;2.15;1.23;;;;;;;;;;5071174;28;20041;-76
2022/06/02 09:32:50;;;;;;;1.35;1.00;;;;;;;;;;5071438;28;20044;-76
2022/06/02 09:35:17;;;;;;;3.05;1.00;;;;;;;;;;5071436;28;20045;-75
2022/06/02 09:38:01;;;;;;;1.77;0.80;;;;;;;;;;5054484;28;20070;-75
2022/06/02 09:40:46;;;;;;;1.15;0.90;;;;;;;;;;5071047;28;20028;-75
2022/06/02 09:43:21;;;;;;;1.73;0.80;;;;;;;;;;5054391;28;20052;-76
2022/06/02 09:45:54;;;;;;;3.08;1.00;;;;;;;;;;5074505;28;20399;-75
2022/06/02 09:48:42;;;;;;;1.80;0.98;;;16.90;99.90;;;;;;5074973;28;20075;-75
2022/06/02 09:51:10;;;;;;;1.92;1.10;;;16.90;99.90;;;;;;5074697;28;20044;-74
2022/06/02 09:53:42;;;;;;;1.88;0.98;;;17.20;99.90;;;;;;5058233;28;20127;-75
2022/06/02 09:56:29;;;;;;;0.98;0.65;;;17.10;99.90;;;;;;5058236;28;20040;-75
2022/06/02 09:59:10;;;;;;;1.52;1.00;;;17.00;99.90;;;;;;5057837;28;20086;-74
2022/06/02 10:02:07;;;;;;;0.85;0.60;;;16.90;99.90;;;;;;5057813;28;20037;-73
2022/06/02 10:04:38;;;;;;;1.33;0.73;;;16.60;99.90;;;;;;5074681;28;20052;-73
2022/06/02 10:07:19;;;;;;;1.23;0.70;;;16.60;99.90;;;;;;5057773;28;20041;-75
2022/06/02 10:10:03;;;;;;;;;;;16.60;99.90;;;;;;5074680;28;20455;-75
2022/06/02 10:12:55;;;;;;;1.10;0.80;;;16.70;99.90;;;;;;5074233;28;19916;-74
2022/06/02 10:15:41;;;;;;;1.50;0.90;;;16.90;99.90;;;;;;5074206;28;20040;-74
2022/06/02 10:18:26;;;;;;;0.60;0.55;;;17.10;99.90;;;;;;5074135;28;20048;-75
2022/06/02 10:21:43;;;;;;;1.05;0.80;;;17.30;99.90;;;;;;5057251;28;20060;-74
2022/06/02 10:24:28;;;;;;;1.00;0.90;;;17.40;99.90;;;;;;5036391;28;20045;-76
2022/06/02 10:27:14;;;;;;;0.73;0.55;;;17.30;99.90;;;;;;5073964;28;20044;-75
2022/06/02 10:29:50;;;;;;;1.00;0.85;;;17.10;99.90;;;;;;5073961;28;20454;-74
2022/06/02 10:32:43;;;;;;;0.63;0.60;;;16.80;99.90;;;;;;5057119;28;20404;-74
2022/06/02 10:35:46;;;;;;;3.67;0.63;;;16.60;99.90;;;;;;5073846;28;20075;-74
2022/06/02 10:38:52;;;;;;;1.25;0.60;;;16.50;99.90;;;;;;5073967;28;20051;-74
2022/06/02 10:41:55;;;;;;;1.65;0.88;;;16.70;99.90;;;;;;5057057;28;20071;-76
2022/06/02 10:44:36;;;;;;;0.52;0.45;;;16.90;99.90;;;;;;5056892;28;20037;-74
2022/06/02 10:47:23;;;;;;;0.60;0.57;;;17.10;99.90;;;;;;5073626;28;20072;-75
2022/06/02 10:49:59;;;;;;;2.88;0.85;;;17.20;99.90;;;;;;5057122;28;20518;-75
2022/06/02 10:52:55;;;;;;;1.35;0.73;;;17.10;99.90;;;;;;5073416;28;20404;-74
2022/06/02 10:55:58;;;;;;;3.08;0.70;;;17.20;99.90;;;;;;5057645;28;20550;-74
2022/06/02 10:58:54;;;;;;;2.55;0.57;;;17.10;99.90;;;;;;5073273;28;20036;-75
2022/06/02 11:01:32;;;;;;;1.25;0.60;;;16.90;99.90;;;;;;5056672;28;20048;-75
2022/06/02 11:04:16;;;;;;;0.95;0.60;;;16.70;99.90;;;;;;5073237;28;20404;-78
2022/06/02 11:07:00;;;;;;;1.17;0.77;;;16.70;99.90;;;;;;5073220;28;20110;-74
2022/06/02 11:10:03;;;;;;;0.70;0.65;;;16.60;99.90;;;;;;5073163;28;20098;-72
2022/06/02 11:12:51;;;;;;;2.13;0.88;;;16.60;99.90;;;;;;5073127;28;20139;-75
2022/06/02 11:15:42;;;;;;;1.63;0.95;;;16.50;99.90;;;;;;5073308;28;20078;-75
2022/06/02 11:18:49;;;;;;;0.65;0.65;;;16.50;99.90;;;;;;5056351;28;20100;-76
2022/06/02 11:21:43;;;;;;;0.90;0.68;;;16.70;99.90;;;;;;5072746;28;20121;-75
2022/06/02 11:24:30;;;;;;;0.98;0.75;;;16.90;99.90;;;;;;5072867;28;20101;-74
2022/06/02 11:26:58;;;;;;;1.27;0.80;;;17.20;99.90;;;;;;5072809;28;20033;-74
2022/06/02 11:29:58;;;;;;;1.48;0.90;;;17.20;99.90;;;;;;5072974;28;20040;-75
2022/06/02 11:33:01;;;;;;;1.45;0.60;;;17.10;99.90;;;;;;5072745;28;20423;-74
2022/06/02 11:36:11;;;;;;;0.80;0.80;;;17.30;99.90;;;;;;5056011;28;20098;-75
2022/06/02 11:39:02;;;;;;;1.13;0.77;;;17.50;99.90;;;;;;5072825;28;20044;-74
2022/06/02 11:41:42;;;;;;;1.02;0.60;;;17.60;99.90;;;;;;5072545;28;20051;-74
2022/06/02 11:44:17;;;;;;;2.72;0.88;;;17.70;99.90;;;;;;5072769;28;20510;-74
2022/06/02 11:47:04;;;;;;;0.98;0.65;;;17.60;99.90;;;;;;5072447;28;20119;-74
2022/06/02 11:49:46;;;;;;;1.20;0.73;;;17.50;99.90;;;;;;5072404;28;20040;-75
2022/06/02 11:52:21;;;;;;;0.63;0.60;;;17.60;99.90;;;;;;5072309;28;20127;-74
2022/06/02 11:55:11;;;;;;;0.55;0.52;;;17.70;99.90;;;;;;5072350;28;20044;-74
2022/06/02 11:58:06;;;;;;;0.60;0.60;;;17.70;99.90;;;;;;5055813;28;20492;-75
2022/06/02 12:01:12;;;;;;;0.50;0.50;;;17.10;99.90;;;;;;5055498;28;20450;-74
2022/06/02 12:03:58;;;;;;;0.77;0.63;;;18.30;99.90;;;;;;5072143;28;20044;-75
2022/06/02 12:06:42;;;;;;;0.70;0.70;;;18.80;99.90;;;;;;5072056;28;20041;-75
2022/06/02 12:09:11;;;;;;;0.98;0.77;;;19.10;99.90;;;;;;5072002;28;20125;-74
2022/06/02 12:11:45;;;;;;;0.80;0.77;;;19.30;99.90;;;;;;5072338;28;20059;-74
2022/06/02 12:14:36;;;;;;;1.10;0.70;;;19.10;99.90;;;;;;5071899;28;20048;-75
2022/06/02 12:17:23;;;;;;;1.55;0.60;;;18.90;99.90;;;;;;5071960;28;20048;-75
2022/06/02 12:20:15;;;;;;;0.40;0.40;;;18.50;99.90;;;;;;5071650;28;20048;-75
2022/06/02 12:23:17;;;;;;;0.60;0.52;;;18.20;99.90;;;;;;5071792;28;20044;-74
2022/06/02 12:25:49;;;;;;;0.73;0.55;;;18.00;99.90;;;;;;5071750;28;20072;-74
2022/06/02 12:28:44;;;;;;;1.50;0.70;;;17.90;99.90;;;;;;5071931;28;20044;-74
2022/06/02 12:31:35;;;;;;;0.47;0.47;;;18.10;99.90;;;;;;5062358;28;20053;-74
2022/06/02 12:34:30;;;;;;;;;;;18.30;99.90;;;;;;5072374;28;20571;-74
2022/06/02 12:37:29;;;;;;;1.52;0.70;;;18.50;99.90;;;;;;5058467;28;19916;-74
2022/06/02 12:40:06;;;;;;;1.77;0.70;;;19.00;99.90;;;;;;5054987;28;20040;-75
2022/06/02 12:42:52;;;;;;;1.00;0.70;;;19.00;99.90;;;;;;5071868;28;20075;-74
2022/06/02 12:45:39;;;;;;;1.42;0.43;;;19.00;99.90;;;;;;5054872;28;20045;-74
2022/06/02 12:48:36;;;;;;;0.65;0.57;;;19.10;99.90;;;;;;5071522;28;20040;-75
2022/06/02 12:51:50;;;;;;;0.98;0.70;;;19.20;99.90;;;;;;5071493;28;20109;-74
2022/06/02 12:54:54;;;;;;;1.00;0.60;;;19.20;99.90;;;;;;5071705;28;20043;-75
2022/06/02 12:57:32;;;;;;;1.77;0.43;;;19.30;99.90;;;;;;5071416;28;20066;-74
2022/06/02 13:00:16;;;;;;;1.95;0.82;;;19.50;99.90;;;;;;5071360;28;20114;-75
2022/06/02 13:03:12;;;;;;;0.88;0.55;;;19.40;99.90;;;;;;5071442;28;20385;-74
2022/06/02 13:06:07;;;;;;;0.77;0.50;;;19.20;99.90;;;;;;5071719;28;20159;-74
2022/06/02 13:08:54;;;;;;;0.80;0.60;;;19.10;99.90;;;;;;5055872;28;20045;-74
2022/06/02 13:12:02;;;;;;;0.75;0.70;;;19.10;99.90;;;;;;5071327;28;20063;-74
2022/06/02 13:14:53;;;;;;;1.25;0.65;;;19.30;99.90;;;;;;5071264;28;20419;-74
2022/06/02 13:17:32;;;;;;;0.65;0.50;;;19.40;99.90;;;;;;5071528;28;20182;-74
2022/06/02 13:20:16;;;;;;;1.50;0.50;;;19.80;99.90;;;;;;5073442;28;20047;-74
2022/06/02 13:23:11;;;;;;;1.00;0.60;;;19.90;99.90;;;;;;5075517;28;20063;-74
2022/06/02 13:25:54;;;;;;;0.98;0.40;;;20.00;99.90;;;;;;5075227;28;20040;-74
2022/06/02 13:28:40;;;;;;;0.82;0.45;;;;;;;;;;5075340;28;20048;-74
2022/06/02 13:31:30;;;;;;;1.00;0.60;;;19.80;99.90;;;;;;5074841;28;20075;-74
2022/06/02 13:34:17;;;;;;;0.77;0.52;;;19.40;99.90;;;;;;5075102;28;20032;-74
2022/06/02 13:37:07;;;;;;;2.40;0.60;;;19.20;99.90;;;;;;5074900;28;20041;-74
2022/06/02 13:39:51;;;;;;;2.15;0.80;;;19.00;99.90;;;;;;5074958;28;20399;-74
2022/06/02 13:42:33;;;;;;;1.23;0.70;;;18.80;99.90;;;;;;5074805;28;20052;-74
2022/06/02 13:45:17;;;;;;;1.40;0.73;;;18.90;99.90;;;;;;5074832;28;20044;-73
2022/06/02 13:48:22;;;;;;;2.15;0.73;;;18.80;99.90;;;;;;5074713;28;20040;-73
2022/06/02 13:51:03;;;;;;;1.30;0.47;;;18.60;99.90;;;;;;5074719;28;20040;-73
2022/06/02 13:57:30;;;;;;;0.65;0.50;;;18.80;99.90;;;;;;5058192;28;20044;-73
2022/06/02 14:00:01;;;;;;;1.77;0.73;;;19.10;99.90;;;;;;5095385;28;20559;-74
2022/06/02 14:02:53;;;;;;;3.80;0.80;;;19.40;99.90;;;;;;5074451;28;20411;-73
2022/06/02 14:05:41;;;;;;;0.60;0.60;;;19.30;99.90;;;;;;5057722;28;20070;-73
2022/06/02 14:08:27;;;;;;;0.93;0.60;;;19.20;99.90;;;;;;5074415;28;20048;-73
2022/06/02 14:11:14;;;;;;;3.45;0.60;;;19.40;99.90;;;;;;5074269;28;20040;-73
2022/06/02 14:14:04;;;;;;;0.57;0.50;;;19.40;99.90;;;;;;5057557;28;20040;-73
2022/06/02 14:16:42;;;;;;;0.73;0.55;;;19.40;99.90;;;;;;5057591;28;20044;-73
2022/06/02 14:20:00;;;;;;;0.82;0.50;;;19.40;99.90;;;;;;5074048;28;20044;-73
2022/06/02 14:22:47;;;;;;;1.75;0.70;;;19.60;99.90;;;;;;5074004;28;20055;-73
2022/06/02 14:25:40;;;;;;;1.23;0.75;;;19.90;99.90;;;;;;5073962;28;20039;-73
2022/06/02 14:28:05;;;;;;;2.20;0.80;;;19.80;99.90;;;;;;5073978;28;20115;-74
2022/06/02 14:30:47;;;;;;;1.67;0.60;;;20.00;99.90;;;;;;5056238;28;20129;-73
2022/06/02 14:33:29;;;;;;;0.77;0.47;;;20.20;99.90;;;;;;5074114;28;20480;-73
2022/06/02 14:36:25;;;;;;;2.05;0.70;;;20.00;99.90;;;;;;5073784;28;20159;-73
2022/06/02 14:39:17;;;;;;;1.20;0.57;;;20.20;99.90;;;;;;5069954;28;20146;-73
2022/06/02 14:42:20;;;;;;;3.00;0.50;;;20.40;99.90;;;;;;5073752;28;20052;-73
2022/06/02 14:44:46;;;;;;;1.40;0.63;;;20.40;99.90;;;;;;5073736;28;20036;-73
2022/06/02 14:47:39;;;;;;;2.13;0.77;;;20.00;99.90;;;;;;5073557;28;20128;-73
2022/06/02 14:50:11;;;;;;;0.60;0.50;;;19.70;99.90;;;;;;5073558;28;20045;-73
2022/06/02 14:53:20;;;;;;;1.02;0.63;;;19.30;99.90;;;;;;5073573;28;20044;-73
2022/06/02 14:55:59;;;;;;;0.60;0.50;;;19.10;99.90;;;;;;5057139;28;20056;-73
2022/06/02 14:59:01;;;;;;;1.83;0.65;;;19.20;99.90;;;;;;5073378;28;20048;-73
2022/06/02 15:01:38;;;;;;;1.20;0.60;;;19.60;99.90;;;;;;5073672;28;20114;-73